Time;durP1;ratioP1;P1;durP2;ratioP2;P2;SDS_P1;SDS_P2;PMS_P1;PMS_P2;Temp;Humidity;BMP_temperature;BMP_pressure;BME280_temperature;BME280_humidity;BME280_pressure;Samples;Min_cycle;Max_cycle;Signal;HPM_P1;HPM_P2
2022/02/24 00:01:46;;;;;;;14.75;3.85;;;8.30;99.90;;;;;;5053885;28;20608;-51
2022/02/24 00:04:12;;;;;;;12.40;3.78;;;8.40;99.90;;;;;;5053929;28;20025;-51
2022/02/24 00:06:37;;;;;;;19.25;4.00;;;8.40;99.90;;;;;;5053504;28;20547;-51
2022/02/24 00:09:04;;;;;;;11.68;3.78;;;8.40;99.90;;;;;;5053774;28;20035;-51
2022/02/24 00:11:31;;;;;;;12.27;4.07;;;8.40;99.90;;;;;;5053897;28;20029;-52
2022/02/24 00:13:57;;;;;;;12.65;3.65;;;8.40;99.90;;;;;;5053858;28;20230;-52
2022/02/24 00:16:23;;;;;;;13.43;3.75;;;8.30;99.90;;;;;;5053668;28;20471;-52
2022/02/24 00:18:49;;;;;;;24.23;3.85;;;8.30;99.90;;;;;;5053261;28;20029;-51
2022/02/24 00:21:14;;;;;;;12.88;3.42;;;8.30;99.90;;;;;;5053966;28;20021;-51
2022/02/24 00:23:40;;;;;;;18.13;4.18;;;8.30;99.90;;;;;;5053485;28;20036;-51
2022/02/24 00:26:05;;;;;;;15.20;4.63;;;8.30;99.90;;;;;;5052370;28;20036;-51
2022/02/24 00:28:31;;;;;;;14.68;3.80;;;8.30;99.90;;;;;;5053435;28;20033;-52
2022/02/24 00:30:57;;;;;;;14.85;3.95;;;8.20;99.90;;;;;;5053504;28;20045;-52
2022/02/24 00:33:22;;;;;;;14.07;3.35;;;8.30;99.90;;;;;;5051136;28;20344;-52
2022/02/24 00:35:48;;;;;;;13.18;3.30;;;8.20;99.90;;;;;;5053578;28;20025;-51
2022/02/24 00:38:13;;;;;;;9.73;3.08;;;8.20;99.90;;;;;;5052970;28;20048;-52
2022/02/24 00:40:39;;;;;;;15.52;3.85;;;8.20;99.90;;;;;;5053524;28;20052;-51
2022/02/24 00:43:05;;;;;;;14.77;3.72;;;8.30;99.90;;;;;;5053438;28;20474;-51
2022/02/24 00:45:31;;;;;;;14.98;4.00;;;8.30;99.90;;;;;;5052639;28;20022;-51
2022/02/24 00:47:58;;;;;;;12.52;3.63;;;8.30;99.90;;;;;;5053359;28;20029;-52
2022/02/24 00:50:24;;;;;;;16.33;4.20;;;8.30;99.90;;;;;;5053067;28;20025;-52
2022/02/24 00:52:49;;;;;;;11.73;3.28;;;8.30;99.90;;;;;;5053417;28;20087;-51
2022/02/24 00:55:15;;;;;;;11.43;3.30;;;8.30;99.90;;;;;;5053262;28;20502;-51
2022/02/24 00:57:41;;;;;;;9.30;3.30;;;8.30;99.90;;;;;;5052846;28;20537;-51
2022/02/24 01:00:07;;;;;;;15.05;4.28;;;8.30;99.90;;;;;;5053224;28;20136;-52
2022/02/24 01:02:33;;;;;;;16.02;3.83;;;8.30;99.90;;;;;;5052759;28;20029;-51
2022/02/24 01:04:59;;;;;;;13.02;3.67;;;8.40;99.90;;;;;;5052425;28;20027;-51
2022/02/24 01:07:24;;;;;;;14.07;3.53;;;8.40;99.90;;;;;;5053531;28;20583;-52
2022/02/24 01:09:50;;;;;;;11.68;3.15;;;8.40;99.90;;;;;;5053059;28;20070;-51
2022/02/24 01:12:15;;;;;;;15.00;3.47;;;8.40;99.90;;;;;;5053387;28;20564;-51
2022/02/24 01:14:41;;;;;;;14.15;3.38;;;8.30;99.90;;;;;;5053406;28;20036;-50
2022/02/24 01:17:07;;;;;;;11.98;3.15;;;8.30;99.90;;;;;;5052345;28;20253;-51
2022/02/24 01:19:32;;;;;;;10.32;3.35;;;8.30;99.90;;;;;;5052290;28;20025;-51
2022/02/24 01:21:58;;;;;;;13.25;3.13;;;8.30;99.90;;;;;;5051420;28;20033;-51
2022/02/24 01:24:24;;;;;;;11.82;2.78;;;8.20;99.90;;;;;;5052032;28;20531;-52
2022/02/24 01:26:49;;;;;;;14.15;3.50;;;8.20;99.90;;;;;;5050894;28;20074;-51
2022/02/24 01:29:15;;;;;;;14.43;3.30;;;8.20;99.90;;;;;;5052283;28;20029;-52
2022/02/24 01:31:41;;;;;;;14.45;4.22;;;8.20;99.90;;;;;;5052148;28;20084;-51
2022/02/24 01:34:06;;;;;;;16.63;4.43;;;8.30;99.90;;;;;;5052746;28;20024;-52
2022/02/24 01:36:32;;;;;;;12.25;3.30;;;8.30;99.90;;;;;;5052106;28;20112;-51
2022/02/24 01:38:58;;;;;;;20.83;3.55;;;8.30;99.90;;;;;;5051900;28;20024;-52
2022/02/24 01:41:23;;;;;;;11.38;3.17;;;8.20;99.90;;;;;;5051755;28;20021;-51
2022/02/24 01:43:49;;;;;;;12.82;3.92;;;8.20;99.90;;;;;;5052181;28;20029;-52
2022/02/24 01:46:16;;;;;;;11.52;3.20;;;8.20;99.90;;;;;;5052705;28;20078;-51
2022/02/24 01:48:42;;;;;;;12.65;3.25;;;8.20;99.90;;;;;;5052546;28;20218;-51
2022/02/24 01:51:09;;;;;;;15.55;3.85;;;8.30;99.90;;;;;;5052140;28;20094;-51
2022/02/24 01:53:35;;;;;;;14.00;3.08;;;8.30;99.90;;;;;;5052190;28;20112;-51
2022/02/24 01:56:03;;;;;;;12.10;3.50;;;8.20;99.90;;;;;;5052178;28;20029;-52
2022/02/24 01:58:28;;;;;;;16.20;3.92;;;8.30;99.90;;;;;;5051972;28;20081;-52
2022/02/24 02:00:54;;;;;;;18.30;4.32;;;8.30;99.90;;;;;;5052458;28;20037;-51
2022/02/24 02:03:20;;;;;;;13.98;3.55;;;8.30;99.90;;;;;;5051599;28;20033;-52
2022/02/24 02:05:47;;;;;;;17.27;3.90;;;8.30;99.90;;;;;;5051309;28;20344;-50
2022/02/24 02:08:13;;;;;;;16.13;3.47;;;8.20;99.90;;;;;;5051836;28;20017;-51
2022/02/24 02:10:39;;;;;;;17.08;3.63;;;8.20;99.90;;;;;;5051884;28;20440;-52
2022/02/24 02:13:05;;;;;;;14.10;4.57;;;8.20;99.90;;;;;;5051243;28;20032;-51
2022/02/24 02:15:30;;;;;;;16.13;4.28;;;8.20;99.90;;;;;;5051566;28;20067;-51
2022/02/24 02:17:56;;;;;;;14.52;3.67;;;8.20;99.90;;;;;;5051667;28;20041;-52
2022/02/24 02:20:22;;;;;;;15.68;3.85;;;8.10;99.90;;;;;;5051796;28;20104;-52
2022/02/24 02:22:53;;;;;;;20.90;4.25;;;8.20;99.90;;;;;;5051623;28;20025;-52
2022/02/24 02:25:22;;;;;;;15.32;3.88;;;8.20;99.90;;;;;;5052140;28;20021;-52
2022/02/24 02:27:52;;;;;;;14.10;4.32;;;8.10;99.90;;;;;;5051617;28;20529;-51
2022/02/24 02:30:19;;;;;;;15.13;3.97;;;8.10;99.90;;;;;;5051441;28;20116;-51
2022/02/24 02:32:45;;;;;;;12.20;4.03;;;8.10;99.90;;;;;;5051835;28;20029;-51
2022/02/24 02:35:11;;;;;;;15.23;3.90;;;8.10;99.90;;;;;;5051748;28;20024;-52
2022/02/24 02:37:37;;;;;;;14.30;3.90;;;8.20;99.90;;;;;;5051440;28;20029;-51
2022/02/24 02:40:04;;;;;;;15.57;3.50;;;8.10;99.90;;;;;;5051675;28;20021;-52
2022/02/24 02:42:30;;;;;;;14.63;4.30;;;8.10;99.90;;;;;;5051885;28;20031;-52
2022/02/24 02:44:56;;;;;;;16.10;4.15;;;8.10;99.90;;;;;;5051766;28;20240;-52
2022/02/24 02:47:21;;;;;;;23.35;3.88;;;8.10;99.90;;;;;;5050817;28;20070;-51
2022/02/24 02:49:47;;;;;;;10.65;3.92;;;8.10;99.90;;;;;;5050751;28;20541;-51
2022/02/24 02:52:13;;;;;;;20.00;4.55;;;8.10;99.90;;;;;;5051573;28;20047;-52
2022/02/24 02:54:38;;;;;;;17.83;3.60;;;8.00;99.90;;;;;;5050341;28;20082;-52
2022/02/24 02:57:04;;;;;;;16.48;3.45;;;8.10;99.90;;;;;;5052962;28;20056;-51
2022/02/24 02:59:30;;;;;;;16.50;4.05;;;8.10;99.90;;;;;;5055335;28;20029;-52
2022/02/24 03:01:56;;;;;;;17.38;3.30;;;8.10;99.90;;;;;;5054696;28;20031;-51
2022/02/24 03:04:22;;;;;;;15.32;3.85;;;8.10;99.90;;;;;;5054970;28;20207;-52
2022/02/24 03:06:48;;;;;;;19.80;3.55;;;8.20;99.90;;;;;;5055251;28;20059;-51
2022/02/24 03:09:13;;;;;;;14.30;4.68;;;8.20;99.90;;;;;;5055284;28;20068;-52
2022/02/24 03:11:39;;;;;;;14.63;3.45;;;8.10;99.90;;;;;;5055265;28;20108;-52
2022/02/24 03:14:05;;;;;;;15.43;3.67;;;8.10;99.90;;;;;;5055659;28;20045;-52
2022/02/24 03:16:31;;;;;;;19.83;3.35;;;8.10;99.90;;;;;;5054838;28;20496;-52
2022/02/24 03:18:56;;;;;;;13.35;3.40;;;8.10;99.90;;;;;;5054640;28;20104;-50
2022/02/24 03:21:22;;;;;;;21.00;4.78;;;8.10;99.90;;;;;;5054619;28;20033;-51
2022/02/24 03:23:49;;;;;;;12.55;2.53;;;8.10;99.90;;;;;;5055140;28;20028;-51
2022/02/24 03:26:15;;;;;;;11.50;2.60;;;8.10;99.90;;;;;;5055456;28;20048;-52
2022/02/24 03:28:40;;;;;;;14.38;3.35;;;8.10;99.90;;;;;;5054497;28;20293;-51
2022/02/24 03:31:06;;;;;;;12.60;3.42;;;8.10;99.90;;;;;;5054821;28;20047;-52
2022/02/24 03:33:32;;;;;;;10.95;3.08;;;8.10;99.90;;;;;;5054951;28;20086;-51
2022/02/24 03:35:58;;;;;;;18.52;4.13;;;8.10;99.90;;;;;;5053207;28;20102;-51
2022/02/24 03:38:23;;;;;;;15.40;3.40;;;8.10;99.90;;;;;;5054488;28;20447;-52
2022/02/24 03:40:49;;;;;;;7.38;2.22;;;8.10;99.90;;;;;;5054207;28;20035;-52
2022/02/24 03:43:15;;;;;;;13.90;3.05;;;8.10;99.90;;;;;;5054529;28;20037;-51
2022/02/24 03:45:41;;;;;;;14.13;3.28;;;8.10;99.90;;;;;;5054718;28;20107;-51
2022/02/24 03:48:06;;;;;;;9.18;2.42;;;8.00;99.90;;;;;;5054316;28;20021;-51
2022/02/24 03:50:32;;;;;;;11.90;2.78;;;8.10;99.90;;;;;;5054457;28;20474;-51
2022/02/24 03:52:57;;;;;;;12.00;2.65;;;8.10;99.90;;;;;;5053741;28;20482;-52
2022/02/24 03:55:23;;;;;;;12.40;2.47;;;8.10;99.90;;;;;;5054563;28;20025;-52
2022/02/24 03:57:49;;;;;;;13.45;2.75;;;8.20;99.90;;;;;;5054213;28;20025;-52
2022/02/24 04:00:15;;;;;;;12.77;2.75;;;8.20;99.90;;;;;;5054570;28;20475;-51
2022/02/24 04:02:41;;;;;;;9.40;2.30;;;8.20;99.90;;;;;;5054094;28;20029;-51
2022/02/24 04:05:08;;;;;;;8.60;2.47;;;8.20;99.90;;;;;;5054422;28;20237;-51
2022/02/24 04:07:33;;;;;;;11.07;2.50;;;8.20;99.90;;;;;;5053441;28;20355;-51
2022/02/24 04:09:59;;;;;;;9.25;2.47;;;8.10;99.90;;;;;;5052798;28;20056;-50
2022/02/24 04:12:25;;;;;;;11.70;2.55;;;8.10;99.90;;;;;;5053672;28;20398;-51
2022/02/24 04:14:50;;;;;;;10.32;2.25;;;8.10;99.90;;;;;;5054026;28;20032;-51
2022/02/24 04:17:16;;;;;;;15.77;2.65;;;8.10;99.90;;;;;;5053438;28;20021;-51
2022/02/24 04:19:41;;;;;;;13.70;3.08;;;8.10;99.90;;;;;;5053987;28;20052;-52
2022/02/24 04:22:07;;;;;;;10.30;2.28;;;8.10;99.90;;;;;;5053114;28;20029;-51
2022/02/24 04:24:33;;;;;;;11.45;2.47;;;8.10;99.90;;;;;;5053857;28;20025;-51
2022/02/24 04:26:59;;;;;;;19.00;2.65;;;8.10;99.90;;;;;;5053345;28;20428;-51
2022/02/24 04:29:25;;;;;;;11.52;1.98;;;8.00;99.90;;;;;;5053465;28;20538;-51
2022/02/24 04:31:51;;;;;;;8.13;2.30;;;8.00;99.90;;;;;;5053472;28;20056;-52
2022/02/24 04:34:16;;;;;;;13.00;3.08;;;8.00;99.90;;;;;;5053742;28;20025;-51
2022/02/24 04:36:42;;;;;;;14.15;3.05;;;8.00;99.90;;;;;;5052207;28;20033;-51
2022/02/24 04:39:08;;;;;;;7.97;2.20;;;8.00;99.90;;;;;;5052906;28;20044;-51
2022/02/24 04:41:33;;;;;;;11.40;2.30;;;7.90;99.90;;;;;;5053337;28;20049;-51
2022/02/24 04:43:59;;;;;;;10.75;2.03;;;7.80;99.90;;;;;;5053676;28;20053;-52
2022/02/24 04:46:25;;;;;;;11.48;2.60;;;7.80;99.90;;;;;;5053409;28;20021;-51
2022/02/24 04:48:50;;;;;;;14.27;3.30;;;7.80;99.90;;;;;;5053098;28;20021;-51
2022/02/24 04:51:16;;;;;;;13.73;2.67;;;7.70;99.90;;;;;;5053503;28;20017;-51
2022/02/24 04:53:42;;;;;;;12.93;2.70;;;7.70;99.90;;;;;;5053561;28;20094;-52
2022/02/24 04:56:08;;;;;;;11.48;2.50;;;7.70;99.90;;;;;;5052780;28;20391;-52
2022/02/24 04:58:34;;;;;;;13.60;2.90;;;7.70;99.90;;;;;;5053227;28;20032;-51
2022/02/24 05:00:59;;;;;;;13.77;2.28;;;7.60;99.90;;;;;;5052536;28;20039;-51
2022/02/24 05:03:25;;;;;;;11.02;2.33;;;7.60;99.90;;;;;;5052691;28;20029;-51
2022/02/24 05:05:51;;;;;;;8.95;2.45;;;7.60;99.90;;;;;;5052889;28;20032;-51
2022/02/24 05:08:16;;;;;;;8.75;2.40;;;7.50;99.90;;;;;;5052551;28;20110;-51
2022/02/24 05:10:42;;;;;;;10.30;2.60;;;7.50;99.90;;;;;;5052773;28;20029;-52
2022/02/24 05:13:07;;;;;;;11.35;2.47;;;7.50;99.90;;;;;;5051919;28;20029;-52
2022/02/24 05:15:33;;;;;;;11.05;2.20;;;7.40;99.90;;;;;;5052767;28;20118;-51
2022/02/24 05:17:59;;;;;;;12.40;2.55;;;7.40;99.90;;;;;;5052437;28;20108;-51
2022/02/24 05:20:24;;;;;;;10.32;2.53;;;7.40;99.90;;;;;;5052478;28;20403;-50
2022/02/24 05:22:50;;;;;;;11.60;3.25;;;7.30;99.90;;;;;;5052610;28;20086;-52
2022/02/24 05:25:16;;;;;;;12.73;3.00;;;7.40;99.90;;;;;;5052519;28;20700;-51
2022/02/24 05:27:43;;;;;;;12.93;3.17;;;7.40;99.90;;;;;;5052001;28;20102;-51
2022/02/24 05:30:12;;;;;;;8.95;2.45;;;7.30;99.90;;;;;;5052667;28;20044;-52
2022/02/24 05:32:38;;;;;;;15.07;2.88;;;7.40;99.90;;;;;;5052503;28;20021;-51
2022/02/24 05:35:04;;;;;;;10.10;2.20;;;7.40;99.90;;;;;;5052316;28;20036;-52
2022/02/24 05:37:30;;;;;;;10.65;2.20;;;7.40;99.90;;;;;;5052348;28;20028;-52
2022/02/24 05:39:56;;;;;;;8.90;2.63;;;7.30;99.90;;;;;;5052038;28;20131;-52
2022/02/24 05:42:23;;;;;;;12.80;2.60;;;7.30;99.90;;;;;;5051827;28;20028;-50
2022/02/24 05:44:49;;;;;;;10.25;2.33;;;7.30;99.90;;;;;;5052903;28;20033;-51
2022/02/24 05:47:15;;;;;;;12.23;2.47;;;7.30;99.90;;;;;;5052366;28;20020;-52
2022/02/24 05:49:41;;;;;;;13.68;2.78;;;7.20;99.90;;;;;;5052308;28;20516;-51
2022/02/24 05:52:07;;;;;;;14.48;2.70;;;7.20;99.90;;;;;;5052293;28;20016;-51
2022/02/24 05:54:33;;;;;;;13.95;2.85;;;7.20;99.90;;;;;;5052250;28;20029;-51
2022/02/24 05:56:59;;;;;;;12.48;2.95;;;7.20;99.90;;;;;;5052369;28;20074;-52
2022/02/24 05:59:25;;;;;;;14.13;2.70;;;7.20;99.90;;;;;;5051695;28;20337;-52
2022/02/24 06:01:50;;;;;;;16.08;2.80;;;7.10;99.90;;;;;;5052003;28;20044;-51
2022/02/24 06:04:17;;;;;;;13.52;3.22;;;7.10;99.90;;;;;;5051587;28;20666;-52
2022/02/24 06:06:43;;;;;;;12.48;2.38;;;7.10;99.90;;;;;;5051429;28;20099;-51
2022/02/24 06:09:09;;;;;;;13.27;3.03;;;7.10;99.90;;;;;;5051447;28;20107;-52
2022/02/24 06:11:35;;;;;;;12.32;2.88;;;7.10;99.90;;;;;;5052095;28;20443;-51
2022/02/24 06:14:01;;;;;;;11.35;2.78;;;7.10;99.90;;;;;;5051828;28;20033;-52
2022/02/24 06:16:26;;;;;;;13.10;2.67;;;7.00;99.90;;;;;;5051820;28;20029;-51
2022/02/24 06:18:52;;;;;;;18.38;3.78;;;7.00;99.90;;;;;;5051507;28;20036;-51
2022/02/24 06:21:17;;;;;;;23.05;7.13;;;7.00;99.90;;;;;;5051458;28;20029;-50
2022/02/24 06:23:44;;;;;;;17.35;2.53;;;7.00;99.90;;;;;;5051569;28;20390;-50
2022/02/24 06:26:10;;;;;;;13.85;3.45;;;7.00;99.90;;;;;;5051417;28;20033;-50
2022/02/24 06:28:36;;;;;;;11.43;2.25;;;7.10;99.90;;;;;;5051882;28;20096;-50
2022/02/24 06:31:01;;;;;;;16.95;3.85;;;7.10;99.90;;;;;;5052570;28;20052;-50
2022/02/24 06:33:27;;;;;;;19.73;3.22;;;7.10;99.90;;;;;;5055366;28;20025;-50
2022/02/24 06:35:53;;;;;;;11.20;2.90;;;7.00;99.90;;;;;;5055126;28;20518;-52
2022/02/24 06:38:19;;;;;;;15.18;3.30;;;7.10;99.90;;;;;;5055583;28;20037;-52
2022/02/24 06:40:45;;;;;;;18.23;4.03;;;7.00;99.90;;;;;;5055377;28;20120;-52
2022/02/24 06:43:10;;;;;;;15.93;2.67;;;7.00;99.90;;;;;;5053434;28;20019;-52
2022/02/24 06:45:36;;;;;;;15.40;3.22;;;7.10;99.90;;;;;;5054058;28;20100;-52
2022/02/24 06:48:02;;;;;;;15.50;3.13;;;7.10;99.90;;;;;;5053378;28;20100;-52
2022/02/24 06:50:28;;;;;;;17.55;3.33;;;7.10;99.90;;;;;;5053455;28;20444;-50
2022/02/24 06:52:53;;;;;;;13.20;2.95;;;7.10;99.90;;;;;;5054643;28;20112;-52
2022/02/24 06:55:19;;;;;;;13.40;3.05;;;7.10;99.90;;;;;;5054996;28;20062;-52
2022/02/24 06:57:47;;;;;;;15.05;3.78;;;7.20;99.90;;;;;;5058207;28;20025;-52
2022/02/24 07:00:14;;;;;;;20.02;3.95;;;7.20;99.90;;;;;;5054410;28;20025;-52
2022/02/24 07:02:40;;;;;;;19.58;3.97;;;7.20;99.90;;;;;;5049181;28;20025;-52
2022/02/24 07:05:07;;;;;;;12.88;2.97;;;7.20;99.90;;;;;;5044846;28;20029;-52
2022/02/24 07:07:34;;;;;;;18.13;3.17;;;7.20;99.90;;;;;;5044100;28;20032;-52
2022/02/24 07:10:04;;;;;;;13.45;3.20;;;7.20;99.90;;;;;;5040546;28;20040;-50
2022/02/24 07:12:30;;;;;;;21.63;3.60;;;7.20;99.90;;;;;;5043147;28;20391;-51
2022/02/24 07:14:57;;;;;;;26.05;4.88;;;7.20;99.90;;;;;;5041180;28;20028;-50
2022/02/24 07:17:23;;;;;;;20.05;3.97;;;7.30;99.90;;;;;;5047141;28;20566;-50
2022/02/24 07:19:49;;;;;;;15.65;3.30;;;7.30;99.90;;;;;;5042850;28;20167;-51
2022/02/24 07:22:14;;;;;;;12.50;2.90;;;7.30;99.90;;;;;;5042032;28;20078;-51
2022/02/24 07:24:40;;;;;;;15.57;4.03;;;7.40;99.90;;;;;;5042077;28;20037;-51
2022/02/24 07:27:06;;;;;;;14.80;2.55;;;7.40;99.90;;;;;;5045553;28;20058;-51
2022/02/24 07:29:32;;;;;;;17.63;3.30;;;7.40;99.90;;;;;;5042780;28;20013;-51
2022/02/24 07:31:57;;;;;;;15.95;3.78;;;7.40;99.90;;;;;;5041214;28;20473;-50
2022/02/24 07:34:23;;;;;;;18.35;3.10;;;7.40;99.90;;;;;;5041043;28;20029;-52
2022/02/24 07:36:50;;;;;;;13.40;4.05;;;7.40;99.90;;;;;;5043605;28;20021;-52
2022/02/24 07:39:16;;;;;;;16.08;3.97;;;7.40;99.90;;;;;;5043622;28;20077;-51
2022/02/24 07:41:42;;;;;;;19.60;3.58;;;7.40;99.90;;;;;;5042323;28;20070;-51
2022/02/24 07:44:08;;;;;;;17.92;3.90;;;7.40;99.90;;;;;;5035128;28;20128;-51
2022/02/24 07:46:34;;;;;;;15.48;3.35;;;7.30;99.90;;;;;;5042228;28;20040;-51
2022/02/24 07:49:00;;;;;;;16.33;3.30;;;7.30;99.90;;;;;;5033354;28;20029;-52
2022/02/24 07:51:26;;;;;;;13.30;3.45;;;7.30;99.90;;;;;;5040228;28;20021;-52
2022/02/24 07:53:52;;;;;;;13.80;3.30;;;7.30;99.90;;;;;;5036938;28;20443;-52
2022/02/24 07:56:18;;;;;;;12.25;2.92;;;7.20;99.90;;;;;;5039067;28;20029;-51
2022/02/24 07:58:44;;;;;;;17.17;3.17;;;7.30;99.90;;;;;;5041458;28;20689;-52
2022/02/24 08:01:10;;;;;;;13.13;2.75;;;7.30;99.90;;;;;;5039817;28;20033;-51
2022/02/24 08:03:35;;;;;;;16.35;3.53;;;7.30;99.90;;;;;;5041797;28;20055;-51
2022/02/24 08:06:01;;;;;;;10.38;2.80;;;7.30;99.90;;;;;;5037575;28;20013;-51
2022/02/24 08:08:27;;;;;;;17.13;3.58;;;7.40;99.90;;;;;;5042044;28;20098;-52
2022/02/24 08:10:53;;;;;;;19.52;3.80;;;7.40;99.90;;;;;;5046697;28;20067;-52
2022/02/24 08:13:19;;;;;;;12.48;1.98;;;7.50;99.90;;;;;;5044606;28;20402;-52
2022/02/24 08:15:45;;;;;;;13.80;3.22;;;7.50;99.90;;;;;;5040511;28;20029;-56
2022/02/24 08:18:10;;;;;;;18.15;3.20;;;7.60;99.90;;;;;;5040975;28;20087;-52
2022/02/24 08:20:36;;;;;;;13.05;3.17;;;7.60;99.90;;;;;;5047093;28;20039;-52
2022/02/24 08:23:04;;;;;;;20.48;3.25;;;7.70;99.90;;;;;;5055252;28;20044;-53
2022/02/24 08:25:31;;;;;;;14.07;3.60;;;7.70;99.90;;;;;;5046974;28;20487;-52
2022/02/24 08:27:57;;;;;;;15.13;2.55;;;7.70;99.90;;;;;;5045978;28;20025;-52
2022/02/24 08:30:23;;;;;;;13.98;2.92;;;7.70;99.90;;;;;;5049631;28;20043;-52
2022/02/24 08:32:51;;;;;;;16.52;3.03;;;7.80;99.90;;;;;;5050258;28;20033;-52
2022/02/24 08:35:18;;;;;;;14.38;3.45;;;7.80;99.90;;;;;;5045759;28;20021;-52
2022/02/24 08:37:45;;;;;;;17.77;2.83;;;7.80;99.90;;;;;;5043323;28;20344;-53
2022/02/24 08:40:12;;;;;;;13.35;2.20;;;7.80;99.90;;;;;;5039271;28;20394;-53
2022/02/24 08:42:38;;;;;;;13.23;2.70;;;7.80;99.90;;;;;;5044297;28;21130;-53
2022/02/24 08:45:04;;;;;;;17.75;3.03;;;7.80;99.90;;;;;;5042344;28;20051;-53
2022/02/24 08:47:29;;;;;;;16.08;2.90;;;7.90;99.90;;;;;;5043597;28;20363;-53
2022/02/24 08:49:55;;;;;;;17.33;2.88;;;7.90;99.90;;;;;;5044217;28;20032;-53
2022/02/24 08:52:21;;;;;;;13.82;2.60;;;7.90;99.90;;;;;;5042632;28;20036;-53
2022/02/24 08:54:46;;;;;;;14.80;2.47;;;7.90;99.90;;;;;;5041108;28;20083;-53
2022/02/24 08:57:12;;;;;;;17.23;3.60;;;7.90;99.90;;;;;;5037974;28;20036;-53
2022/02/24 08:59:38;;;;;;;10.80;2.63;;;8.10;99.90;;;;;;5041740;28;20056;-53
2022/02/24 09:02:04;;;;;;;14.75;2.63;;;8.30;99.90;;;;;;5041475;28;20032;-53
2022/02/24 09:04:30;;;;;;;11.02;2.40;;;8.50;99.90;;;;;;5042300;28;20732;-53
2022/02/24 09:06:56;;;;;;;13.40;2.78;;;8.50;99.90;;;;;;5044665;28;20029;-53
2022/02/24 09:09:24;;;;;;;14.15;2.53;;;8.50;99.90;;;;;;5049589;28;20364;-53
2022/02/24 09:11:50;;;;;;;14.45;2.78;;;8.60;99.90;;;;;;5041799;28;20019;-52
2022/02/24 09:14:16;;;;;;;15.38;2.80;;;8.90;99.90;;;;;;5041565;28;20371;-53
2022/02/24 09:16:43;;;;;;;10.38;2.30;;;9.50;99.90;;;;;;5044369;28;20039;-53
2022/02/24 09:19:10;;;;;;;14.55;2.65;;;9.70;99.90;;;;;;5046702;28;20040;-52
2022/02/24 09:21:36;;;;;;;11.15;2.72;;;9.90;99.90;;;;;;5044713;28;20033;-54
2022/02/24 09:24:02;;;;;;;11.82;2.70;;;10.50;99.90;;;;;;5047552;28;20056;-54
2022/02/24 09:26:27;;;;;;;15.10;2.67;;;10.50;99.90;;;;;;5044141;28;20737;-53
2022/02/24 09:28:53;;;;;;;10.85;2.17;;;10.90;99.90;;;;;;5041091;28;20036;-54
2022/02/24 09:31:20;;;;;;;11.85;2.58;;;11.40;99.90;;;;;;5040211;28;20067;-54
2022/02/24 09:33:46;;;;;;;11.50;2.50;;;11.60;99.90;;;;;;5042131;28;20033;-54
2022/02/24 09:36:12;;;;;;;12.63;2.70;;;11.80;99.90;;;;;;5041250;28;20033;-54
2022/02/24 09:38:38;;;;;;;10.52;2.15;;;11.90;99.90;;;;;;5044585;28;20052;-54
2022/02/24 09:41:05;;;;;;;4.75;1.65;;;11.80;99.90;;;;;;5040728;28;20453;-53
2022/02/24 09:43:35;;;;;;;8.50;2.00;;;11.60;99.90;;;;;;5044074;28;20714;-53
2022/02/24 09:46:07;;;;;;;11.10;1.55;;;11.80;99.90;;;;;;5038557;28;20485;-53
2022/02/24 09:48:36;;;;;;;6.18;1.40;;;11.60;99.90;;;;;;5043935;28;20035;-53
2022/02/24 09:51:03;;;;;;;10.63;2.20;;;11.60;99.90;;;;;;5044903;28;20029;-53
2022/02/24 09:53:34;;;;;;;7.00;1.73;;;11.70;99.90;;;;;;5041663;28;20032;-53
2022/02/24 09:56:01;;;;;;;11.27;2.55;;;11.60;99.90;;;;;;5037235;28;20032;-53
2022/02/24 09:58:27;;;;;;;7.13;2.25;;;11.60;99.90;;;;;;5036683;28;20585;-53
2022/02/24 10:00:54;;;;;;;9.95;2.40;;;11.80;99.90;;;;;;5034947;28;20390;-53
2022/02/24 10:03:45;;;;;;;11.77;2.78;;;11.70;99.90;;;;;;5036022;28;20029;-53
2022/02/24 10:06:12;;;;;;;9.43;1.85;;;11.90;99.90;;;;;;5037209;28;20025;-53
2022/02/24 10:08:46;;;;;;;7.53;1.85;;;12.20;99.90;;;;;;5036463;28;20036;-53
2022/02/24 10:11:27;;;;;;;8.52;2.60;;;11.90;99.90;;;;;;5054380;28;20059;-52
2022/02/24 10:14:00;;;;;;;12.50;2.67;;;11.90;99.90;;;;;;5038304;28;20033;-53
2022/02/24 10:16:27;;;;;;;11.45;2.75;;;11.80;99.90;;;;;;5035984;28;20012;-53
2022/02/24 10:18:53;;;;;;;8.48;2.35;;;12.00;99.90;;;;;;5046244;28;20947;-53
2022/02/24 10:21:20;;;;;;;10.23;2.25;;;12.00;99.90;;;;;;5050423;28;20036;-54
2022/02/24 10:23:48;;;;;;;6.82;1.95;;;12.10;99.90;;;;;;5038858;28;20037;-54
2022/02/24 10:26:16;;;;;;;10.07;2.55;;;11.90;99.90;;;;;;5038925;28;20056;-54
2022/02/24 10:28:50;;;;;;;9.23;2.25;;;11.90;99.90;;;;;;5037751;28;20071;-54
2022/02/24 10:31:18;;;;;;;6.35;2.22;;;12.30;99.90;;;;;;5032480;28;20045;-53
2022/02/24 10:33:52;;;;;;;6.43;1.63;;;12.10;99.90;;;;;;5038893;28;20025;-54
2022/02/24 10:36:23;;;;;;;9.48;2.47;;;12.20;99.90;;;;;;5038870;28;20120;-54
2022/02/24 10:38:59;;;;;;;11.70;2.92;;;12.40;99.90;;;;;;5040835;28;20114;-54
2022/02/24 10:41:30;;;;;;;11.57;2.70;;;12.70;99.90;;;;;;5036622;28;20037;-54
2022/02/24 10:44:19;;;;;;;9.02;1.98;;;12.50;99.90;;;;;;5036736;28;20025;-54
2022/02/24 10:47:07;;;;;;;10.50;2.83;;;12.40;99.90;;;;;;5037145;28;20028;-55
2022/02/24 10:49:37;;;;;;;6.65;1.90;;;12.60;99.90;;;;;;5037779;28;20052;-55
2022/02/24 10:52:13;;;;;;;10.10;2.20;;;12.70;99.90;;;;;;5034863;28;20091;-55
2022/02/24 10:54:59;;;;;;;12.13;3.10;;;12.10;99.90;;;;;;5034613;28;20029;-54
2022/02/24 10:57:27;;;;;;;7.47;1.80;;;11.70;99.90;;;;;;5037648;28;20366;-55
2022/02/24 10:59:57;;;;;;;8.48;1.95;;;11.60;99.90;;;;;;5035144;28;20314;-54
2022/02/24 11:02:24;;;;;;;7.28;1.80;;;11.10;99.90;;;;;;5035580;28;20009;-54
2022/02/24 11:04:53;;;;;;;5.82;1.42;;;11.70;99.90;;;;;;5033285;28;20115;-55
2022/02/24 11:07:21;;;;;;;4.85;1.80;;;12.50;99.90;;;;;;5033570;28;20114;-55
2022/02/24 11:09:48;;;;;;;6.30;1.75;;;12.70;99.90;;;;;;5036502;28;20032;-55
2022/02/24 11:12:16;;;;;;;7.53;2.05;;;12.40;99.90;;;;;;5035906;28;20086;-55
2022/02/24 11:14:46;;;;;;;10.15;2.28;;;12.20;99.90;;;;;;5030795;28;20025;-55
2022/02/24 11:17:12;;;;;;;4.70;1.52;;;12.00;99.90;;;;;;5036038;28;20587;-55
2022/02/24 11:19:40;;;;;;;8.02;2.13;;;11.60;99.90;;;;;;5038630;28;20401;-55
2022/02/24 11:22:07;;;;;;;6.93;1.65;;;11.50;99.90;;;;;;5039693;28;20127;-55
2022/02/24 11:24:34;;;;;;;17.80;2.08;;;11.60;99.90;;;;;;5038233;28;20260;-55
2022/02/24 11:27:18;;;;;;;5.88;1.48;;;11.70;99.90;;;;;;5038136;28;20104;-57
2022/02/24 11:29:53;;;;;;;4.85;1.63;;;11.50;99.90;;;;;;5039725;28;20445;-55
2022/02/24 11:32:23;;;;;;;4.22;1.45;;;11.50;99.90;;;;;;5043943;28;20516;-54
2022/02/24 11:34:58;;;;;;;10.93;2.30;;;11.30;99.90;;;;;;5044543;28;20056;-55
2022/02/24 11:37:34;;;;;;;6.88;1.67;;;11.10;99.90;;;;;;5045148;28;20020;-53
2022/02/24 11:40:26;;;;;;;8.68;1.70;;;11.00;99.90;;;;;;5042908;28;20055;-54
2022/02/24 11:43:22;;;;;;;7.00;1.55;;;11.00;99.90;;;;;;5045091;28;20497;-53
2022/02/24 11:45:50;;;;;;;3.97;1.50;;;11.20;99.90;;;;;;5041757;28;20021;-53
2022/02/24 11:48:17;;;;;;;8.18;1.63;;;11.80;99.90;;;;;;5041260;28;20031;-55
2022/02/24 11:50:58;;;;;;;9.93;2.15;;;11.90;99.90;;;;;;5038486;28;20533;-53
2022/02/24 11:53:27;;;;;;;6.70;1.88;;;11.70;99.90;;;;;;5044627;28;20059;-54
2022/02/24 11:56:12;;;;;;;10.73;2.22;;;11.50;99.90;;;;;;5042734;28;20035;-53
2022/02/24 11:58:51;;;;;;;3.78;1.60;;;11.30;99.90;;;;;;5047876;28;20021;-53
2022/02/24 12:01:47;;;;;;;6.75;1.27;;;10.90;99.90;;;;;;5047014;28;20482;-54
2022/02/24 12:04:20;;;;;;;11.45;2.08;;;10.70;99.90;;;;;;5044785;28;20087;-54
2022/02/24 12:07:07;;;;;;;4.75;1.40;;;10.60;99.90;;;;;;5046411;28;20033;-54
2022/02/24 12:09:34;;;;;;;7.60;2.28;;;10.50;99.90;;;;;;5045471;28;20050;-55
2022/02/24 12:12:20;;;;;;;8.20;1.80;;;10.40;99.90;;;;;;5041380;28;20032;-55
2022/02/24 12:14:47;;;;;;;7.97;2.00;;;10.40;99.90;;;;;;5047434;28;20025;-55
2022/02/24 12:17:13;;;;;;;6.25;1.73;;;10.30;99.90;;;;;;5044530;28;20051;-54
2022/02/24 12:19:56;;;;;;;8.23;1.65;;;10.20;99.90;;;;;;5043793;28;20088;-54
2022/02/24 12:22:28;;;;;;;7.43;2.10;;;10.10;99.90;;;;;;5040369;28;20091;-54
2022/02/24 12:25:04;;;;;;;11.70;2.72;;;10.20;99.90;;;;;;5040413;28;20128;-54
2022/02/24 12:28:06;;;;;;;5.60;1.98;;;10.10;99.90;;;;;;5044444;28;20017;-54
2022/02/24 12:30:39;;;;;;;8.43;2.17;;;9.80;99.90;;;;;;5038721;28;20561;-55
2022/02/24 12:33:14;;;;;;;7.40;1.70;;;9.50;99.90;;;;;;5040078;28;20040;-54
2022/02/24 12:35:44;;;;;;;10.10;2.95;;;9.40;99.90;;;;;;5034017;28;20013;-54
2022/02/24 12:38:12;;;;;;;4.25;2.33;;;9.30;99.90;;;;;;5037713;28;20569;-53
2022/02/24 12:40:41;;;;;;;8.25;2.35;;;9.30;99.90;;;;;;5037049;28;20021;-54
2022/02/24 12:43:09;;;;;;;12.00;2.90;;;9.20;99.90;;;;;;5039698;28;20033;-54
2022/02/24 12:45:36;;;;;;;6.25;1.77;;;9.20;99.90;;;;;;5036386;28;20047;-54
2022/02/24 12:48:05;;;;;;;18.50;3.25;;;9.10;99.90;;;;;;5039636;28;20103;-53